Time;durP1;ratioP1;P1;durP2;ratioP2;P2;SDS_P1;SDS_P2;PMS_P1;PMS_P2;Temp;Humidity;BMP_temperature;BMP_pressure;BME280_temperature;BME280_humidity;BME280_pressure;Samples;Min_cycle;Max_cycle;Signal;HPM_P1;HPM_P2
2023/01/14 00:01:44;;;;;;;8.30;1.63;;;;;;;4.85;100.00;100414.69;7391994;19;20772;-62
2023/01/14 00:04:14;;;;;;;8.40;1.60;;;;;;;4.86;100.00;100423.22;7395576;19;20443;-58
2023/01/14 00:06:44;;;;;;;6.47;1.47;;;;;;;4.83;100.00;100430.72;7395118;19;20444;-58
2023/01/14 00:09:17;;;;;;;11.00;1.67;;;;;;;4.81;100.00;100428.06;7395408;19;20428;-60
2023/01/14 00:11:50;;;;;;;17.00;1.87;;;;;;;4.82;100.00;100437.50;7395288;19;20443;-60
2023/01/14 00:14:21;;;;;;;64.37;20.47;;;;;;;4.89;100.00;100432.75;7393424;19;20443;-61
2023/01/14 00:16:51;;;;;;;53.10;11.87;;;;;;;4.85;100.00;100442.81;7395140;19;20439;-60
2023/01/14 00:19:21;;;;;;;54.90;20.67;;;;;;;4.86;100.00;100446.22;7395297;19;20427;-60
2023/01/14 00:21:51;;;;;;;61.97;21.53;;;;;;;4.88;100.00;100454.88;7394466;19;20439;-61
2023/01/14 00:24:22;;;;;;;7.83;2.40;;;;;;;4.85;100.00;100453.03;7396121;19;20447;-60
2023/01/14 00:26:56;;;;;;;50.73;14.87;;;;;;;4.95;100.00;100457.00;7394401;19;20439;-61
2023/01/14 00:29:27;;;;;;;11.57;2.20;;;;;;;4.88;100.00;100462.56;7397360;19;20744;-62
2023/01/14 00:31:57;;;;;;;33.97;11.70;;;;;;;4.96;100.00;100474.13;7391385;19;20454;-61
2023/01/14 00:34:28;;;;;;;19.70;7.50;;;;;;;4.88;100.00;100470.22;7396559;19;20466;-62
2023/01/14 00:36:58;;;;;;;12.20;3.00;;;;;;;4.83;100.00;100471.63;7395595;19;20439;-60
2023/01/14 00:39:28;;;;;;;13.10;3.17;;;;;;;4.85;100.00;100473.47;7397192;19;20391;-59
2023/01/14 00:42:00;;;;;;;16.23;5.97;;;;;;;4.91;100.00;100474.66;7394626;19;20442;-60
2023/01/14 00:44:29;;;;;;;6.20;1.93;;;;;;;4.86;100.00;100495.69;7396513;19;20432;-61
2023/01/14 00:46:59;;;;;;;13.60;3.50;;;;;;;4.83;100.00;100494.63;7395098;19;20439;-59
2023/01/14 00:49:28;;;;;;;14.90;5.40;;;;;;;4.84;100.00;100514.28;7397937;19;20968;-62
2023/01/14 00:52:00;;;;;;;12.17;3.27;;;;;;;4.86;100.00;100517.81;7393086;19;20457;-62
2023/01/14 00:54:31;;;;;;;11.57;1.97;;;;;;;4.81;100.00;100521.75;7395669;19;20993;-61
2023/01/14 00:57:04;;;;;;;16.67;4.17;;;;;;;4.90;100.00;100526.53;7393572;19;21364;-61
2023/01/14 00:59:33;;;;;;;3.90;0.87;;;;;;;4.77;100.00;100522.38;7395915;19;20415;-61
2023/01/14 01:02:04;;;;;;;9.80;2.20;;;;;;;4.71;100.00;100526.31;7393450;19;20466;-60
2023/01/14 01:04:34;;;;;;;6.10;1.70;;;;;;;4.68;100.00;100531.22;7396013;19;21008;-60
2023/01/14 01:07:05;;;;;;;9.57;2.63;;;;;;;4.71;100.00;100528.88;7394228;19;20449;-58
2023/01/14 01:09:34;;;;;;;6.20;1.90;;;;;;;4.62;100.00;100541.09;7397647;19;20945;-60
2023/01/14 01:12:07;;;;;;;7.40;1.93;;;;;;;4.59;100.00;100538.31;7392848;19;20431;-61
2023/01/14 01:14:36;;;;;;;11.97;2.07;;;;;;;4.56;100.00;100545.81;7394966;19;20431;-60
2023/01/14 01:17:06;;;;;;;4.40;1.33;;;;;;;4.46;100.00;100549.44;7393562;19;20440;-61
2023/01/14 01:19:35;;;;;;;4.57;2.20;;;;;;;4.58;100.00;100554.44;7395592;19;20415;-60
2023/01/14 01:22:05;;;;;;;4.17;1.20;;;;;;;4.51;100.00;100562.53;7392845;19;21052;-59
2023/01/14 01:24:34;;;;;;;5.37;1.63;;;;;;;4.51;100.00;100563.38;7394626;19;20731;-59
2023/01/14 01:27:06;;;;;;;5.83;1.53;;;;;;;4.52;100.00;100564.28;7393547;19;20443;-60
2023/01/14 01:29:36;;;;;;;10.13;3.30;;;;;;;4.51;100.00;100565.09;7396183;19;20419;-62
2023/01/14 01:32:06;;;;;;;6.47;1.33;;;;;;;4.48;100.00;100572.53;7390340;19;20427;-60
2023/01/14 01:34:36;;;;;;;10.10;2.10;;;;;;;4.46;100.00;100578.44;7395261;19;20447;-59
2023/01/14 01:37:05;;;;;;;26.47;4.60;;;;;;;4.46;100.00;100578.44;7393173;19;20427;-61
2023/01/14 01:39:34;;;;;;;15.03;3.00;;;;;;;4.41;100.00;100577.25;7395384;19;20415;-60
2023/01/14 01:42:07;;;;;;;18.17;2.63;;;;;;;4.49;100.00;100574.28;7392571;19;20431;-61
2023/01/14 01:45:07;;;;;;;21.50;2.10;;;;;;;4.46;100.00;100580.09;7395144;19;20435;-61
2023/01/14 01:47:37;;;;;;;5.80;1.30;;;;;;;4.40;100.00;100589.91;7395165;19;20438;-60
2023/01/14 01:50:07;;;;;;;10.20;1.20;;;;;;;4.41;100.00;100592.59;7392963;19;20391;-60
2023/01/14 01:52:36;;;;;;;5.83;1.13;;;;;;;4.49;100.00;100592.19;7394259;19;20393;-61
2023/01/14 01:55:12;;;;;;;9.60;1.80;;;;;;;4.48;100.00;100600.66;7389739;19;20427;-61
2023/01/14 01:57:44;;;;;;;3.50;1.40;;;;;;;4.49;100.00;100598.19;7395115;19;20938;-60
2023/01/14 02:00:14;;;;;;;10.43;1.80;;;;;;;4.47;100.00;100602.34;7390798;19;20426;-60
2023/01/14 02:02:44;;;;;;;4.90;1.53;;;;;;;4.46;100.00;100601.44;7394598;19;20396;-60
2023/01/14 02:05:14;;;;;;;7.40;2.13;;;;;;;4.49;100.00;100602.41;7391006;19;20414;-60
2023/01/14 02:07:43;;;;;;;4.37;0.97;;;;;;;4.48;100.00;100606.66;7394421;19;20429;-61
2023/01/14 02:10:13;;;;;;;3.67;1.17;;;;;;;4.50;100.00;100605.06;7392919;19;20403;-61
2023/01/14 02:12:59;;;;;;;7.73;1.50;;;;;;;4.53;100.00;100612.94;7392891;19;20411;-60
2023/01/14 02:15:40;;;;;;;10.53;1.57;;;;;;;4.53;100.00;100612.03;7389947;19;20403;-62
2023/01/14 02:18:22;;;;;;;8.67;1.20;;;;;;;4.60;100.00;100614.19;7395115;19;20439;-60
2023/01/14 02:20:58;;;;;;;17.50;1.23;;;;;;;4.67;100.00;100615.50;7390688;19;20442;-61
2023/01/14 02:23:49;;;;;;;4.73;1.00;;;;;;;4.59;100.00;100615.91;7394715;19;20435;-60
2023/01/14 02:26:46;;;;;;;7.33;2.37;;;;;;;4.54;100.00;100621.47;7391970;19;20546;-59
2023/01/14 02:29:38;;;;;;;9.80;1.90;;;;;;;4.58;100.00;100620.91;7395051;19;20411;-60
2023/01/14 02:32:13;;;;;;;7.37;1.80;;;;;;;4.58;100.00;100626.00;7391535;19;20469;-61
2023/01/14 02:34:52;;;;;;;4.00;1.20;;;;;;;4.57;100.00;100621.69;7392156;19;20518;-62
2023/01/14 02:37:26;;;;;;;6.80;1.87;;;;;;;4.63;100.00;100614.41;7391485;19;20824;-60
2023/01/14 02:40:02;;;;;;;6.50;1.33;;;;;;;4.53;100.00;100606.94;7394720;19;20411;-61
2023/01/14 02:45:23;;;;;;;14.53;2.30;;;;;;;4.63;100.00;100606.75;7398717;19;20411;-60
2023/01/14 02:47:53;;;;;;;11.97;1.80;;;;;;;4.63;100.00;100604.19;7401389;19;20395;-60
2023/01/14 02:50:22;;;;;;;8.60;1.70;;;;;;;4.56;100.00;100615.69;7399066;19;20771;-61
2023/01/14 02:52:52;;;;;;;6.87;2.40;;;;;;;4.69;100.00;100606.22;7400271;19;20414;-61
2023/01/14 02:55:31;;;;;;;14.80;2.30;;;;;;;4.64;100.00;100600.84;7397698;19;21186;-62
2023/01/14 02:58:17;;;;;;;13.80;1.83;;;;;;;4.60;100.00;100596.31;7401308;19;20403;-62
2023/01/14 03:00:55;;;;;;;7.47;1.50;;;;;;;4.64;100.00;100595.72;7393566;19;20454;-58
2023/01/14 03:03:34;;;;;;;5.00;1.77;;;;;;;4.63;100.00;100609.31;7399869;19;20449;-60
2023/01/14 03:06:15;;;;;;;6.30;1.60;;;;;;;4.59;100.00;100608.22;7397672;19;20450;-61
2023/01/14 03:08:51;;;;;;;10.40;1.50;;;;;;;4.60;100.00;100619.31;7401493;19;20427;-61
2023/01/14 03:11:20;;;;;;;7.17;1.27;;;;;;;4.61;100.00;100610.84;7397792;19;20430;-61
2023/01/14 03:13:53;;;;;;;12.73;1.80;;;;;;;4.64;100.00;100615.28;7399053;19;20862;-60
2023/01/14 03:16:30;;;;;;;4.47;1.37;;;;;;;4.68;100.00;100618.13;7397061;19;20470;-62
2023/01/14 03:19:04;;;;;;;6.23;1.20;;;;;;;4.66;100.00;100623.94;7400570;19;20427;-60
2023/01/14 03:21:37;;;;;;;12.30;2.10;;;;;;;4.67;100.00;100621.47;7397469;19;20411;-61
2023/01/14 03:24:10;;;;;;;6.97;1.20;;;;;;;4.72;100.00;100624.34;7398677;19;20443;-61
2023/01/14 03:26:40;;;;;;;3.10;1.07;;;;;;;4.71;100.00;100631.09;7396821;19;20989;-62
2023/01/14 03:29:11;;;;;;;4.33;1.10;;;;;;;4.76;100.00;100631.38;7400344;19;20418;-61
2023/01/14 03:31:47;;;;;;;7.37;1.97;;;;;;;4.76;100.00;100640.75;7396121;19;20442;-61
2023/01/14 03:34:20;;;;;;;12.20;1.70;;;;;;;4.78;100.00;100646.84;7398167;19;20459;-61
2023/01/14 03:36:50;;;;;;;19.87;7.03;;;;;;;4.81;100.00;100644.47;7397035;19;20450;-62
2023/01/14 03:39:22;;;;;;;6.30;1.33;;;;;;;4.80;100.00;100653.81;7400534;19;20426;-60
2023/01/14 03:44:41;;;;;;;5.03;1.87;;;;;;;4.80;100.00;100674.28;7397280;19;20814;-61
2023/01/14 03:47:13;;;;;;;5.20;1.70;;;;;;;4.81;100.00;100676.03;7397542;19;20819;-60
2023/01/14 03:49:42;;;;;;;2.40;0.63;;;;;;;4.84;100.00;100680.47;7399984;19;20399;-62
2023/01/14 03:52:16;;;;;;;3.70;0.63;;;;;;;4.87;100.00;100690.88;7395562;19;20522;-61
2023/01/14 03:54:53;;;;;;;2.53;1.00;;;;;;;4.85;100.00;100698.47;7394587;19;20431;-59
2023/01/14 03:57:26;;;;;;;1.70;0.53;;;;;;;4.88;100.00;100702.88;7396834;19;20448;-61
2023/01/14 03:59:59;;;;;;;7.37;0.87;;;;;;;4.91;100.00;100713.31;7398813;19;20407;-61
2023/01/14 04:02:32;;;;;;;11.37;1.33;;;;;;;4.92;100.00;100714.19;7396266;19;20450;-62
2023/01/14 04:05:01;;;;;;;2.23;0.67;;;;;;;4.95;100.00;100716.94;7394454;19;20455;-61
2023/01/14 04:07:31;;;;;;;3.73;1.20;;;;;;;4.94;100.00;100717.72;7399346;19;20459;-58
2023/01/14 04:10:00;;;;;;;3.50;1.03;;;;;;;4.95;100.00;100720.38;7396176;19;20422;-59
2023/01/14 04:12:30;;;;;;;6.80;1.10;;;;;;;4.97;100.00;100723.91;7397925;19;20404;-61
2023/01/14 04:17:44;;;;;;;5.20;0.90;;;;;;;4.96;100.00;100740.06;7397986;19;20399;-61
2023/01/14 04:20:13;;;;;;;4.60;0.97;;;;;;;4.94;100.00;100746.75;7396156;19;20417;-61
2023/01/14 04:22:43;;;;;;;4.07;1.30;;;;;;;4.93;100.00;100747.50;7395623;19;20411;-61
2023/01/14 04:25:12;;;;;;;3.27;0.90;;;;;;;4.93;100.00;100744.97;7393431;19;20485;-61
2023/01/14 04:27:42;;;;;;;7.73;1.23;;;;;;;5.00;100.00;100747.16;7397977;19;20380;-61
2023/01/14 04:30:13;;;;;;;7.30;1.10;;;;;;;4.98;100.00;100748.69;7395558;19;20445;-61
2023/01/14 04:32:45;;;;;;;13.00;1.77;;;;;;;4.96;100.00;100757.97;7396788;19;20403;-62
2023/01/14 04:35:15;;;;;;;1.47;0.40;;;;;;;5.02;100.00;100762.56;7395750;19;20388;-60
2023/01/14 04:37:45;;;;;;;6.50;0.77;;;;;;;5.07;100.00;100771.44;7397784;19;20414;-59
2023/01/14 04:40:15;;;;;;;2.87;1.10;;;;;;;4.99;100.00;100770.91;7394601;19;20396;-59
2023/01/14 04:42:45;;;;;;;3.30;1.20;;;;;;;4.83;100.00;100774.16;7394614;19;20408;-62
2023/01/14 04:45:14;;;;;;;1.80;1.20;;;;;;;4.76;100.00;100776.25;7392225;19;20447;-61
2023/01/14 04:47:46;;;;;;;4.83;1.00;;;;;;;4.69;100.00;100773.28;7397242;19;20430;-61
2023/01/14 04:52:58;;;;;;;2.53;0.73;;;;;;;4.63;100.00;100770.31;7396625;19;20411;-60
2023/01/14 04:55:28;;;;;;;2.90;0.87;;;;;;;4.57;100.00;100768.22;7395081;19;20411;-62
2023/01/14 04:57:57;;;;;;;5.53;1.10;;;;;;;4.67;100.00;100754.38;7397321;19;20408;-62
2023/01/14 05:00:27;;;;;;;3.63;1.10;;;;;;;4.61;100.00;100769.31;7394322;19;20446;-61
2023/01/14 05:02:59;;;;;;;4.40;1.23;;;;;;;4.61;100.00;100758.22;7393916;19;20426;-61
2023/01/14 05:05:28;;;;;;;3.10;1.23;;;;;;;4.57;100.00;100746.91;7394280;19;20407;-61
2023/01/14 05:07:58;;;;;;;8.70;2.30;;;;;;;4.67;100.00;100743.28;7397115;19;20423;-60
2023/01/14 05:10:27;;;;;;;6.77;1.87;;;;;;;4.68;100.00;100740.81;7393711;19;20399;-60
2023/01/14 05:13:02;;;;;;;3.90;1.13;;;;;;;4.65;100.00;100735.50;7396669;19;20487;-62
2023/01/14 05:15:33;;;;;;;7.23;1.70;;;;;;;4.71;100.00;100733.34;7394262;19;20427;-62
2023/01/14 05:18:06;;;;;;;9.07;1.50;;;;;;;4.67;100.00;100718.59;7396823;19;20407;-60
2023/01/14 05:20:36;;;;;;;14.90;1.50;;;;;;;4.62;100.00;100711.44;7395084;19;20427;-62
2023/01/14 05:23:07;;;;;;;5.17;1.90;;;;;;;4.64;100.00;100705.63;7394245;19;20962;-59
2023/01/14 05:25:37;;;;;;;9.43;1.50;;;;;;;4.66;100.00;100693.81;7392213;19;20463;-62
2023/01/14 05:28:08;;;;;;;7.17;1.87;;;;;;;4.72;100.00;100688.25;7396476;19;20400;-61
2023/01/14 05:30:38;;;;;;;11.23;2.00;;;;;;;4.73;100.00;100683.19;7392900;19;20444;-62
2023/01/14 05:33:10;;;;;;;7.30;2.00;;;;;;;4.75;100.00;100674.75;7395439;19;20399;-63
2023/01/14 05:35:40;;;;;;;10.60;1.80;;;;;;;4.70;100.00;100672.81;7392462;19;20455;-62
2023/01/14 05:38:09;;;;;;;10.23;2.03;;;;;;;4.73;100.00;100667.00;7396072;19;20403;-62
2023/01/14 05:40:39;;;;;;;12.00;3.57;;;;;;;4.78;100.00;100667.28;7392456;19;20439;-63
2023/01/14 05:45:51;;;;;;;8.80;2.30;;;;;;;4.80;100.00;100669.16;7392420;19;20439;-63
2023/01/14 05:48:25;;;;;;;11.40;3.07;;;;;;;4.82;100.00;100662.47;7395945;19;20407;-62
2023/01/14 05:50:56;;;;;;;15.10;3.40;;;;;;;4.88;100.00;100651.75;7392545;19;20455;-63
2023/01/14 05:53:26;;;;;;;7.33;2.60;;;;;;;4.88;100.00;100651.75;7395339;19;20423;-63
2023/01/14 05:55:57;;;;;;;9.00;3.20;;;;;;;4.90;100.00;100647.63;7392706;19;20438;-63
2023/01/14 05:58:27;;;;;;;5.30;2.67;;;;;;;4.92;100.00;100648.59;7396240;19;20415;-63
2023/01/14 06:06:26;;;;;;;9.13;3.00;;;;;;;4.97;100.00;100647.19;7392158;19;20546;-62
2023/01/14 06:08:57;;;;;;;5.53;2.40;;;;;;;4.96;100.00;100645.44;7395001;19;20411;-61
2023/01/14 06:11:27;;;;;;;7.60;2.40;;;;;;;4.99;100.00;100644.75;7391759;19;20427;-62
2023/01/14 06:13:58;;;;;;;11.03;3.60;;;;;;;5.00;100.00;100639.75;7393292;19;20431;-63
2023/01/14 06:16:30;;;;;;;10.63;3.57;;;;;;;5.05;100.00;100639.13;7390226;19;20445;-64
2023/01/14 06:19:02;;;;;;;15.17;3.60;;;;;;;5.03;100.00;100641.56;7394874;19;20404;-62
2023/01/14 06:21:33;;;;;;;15.63;3.77;;;;;;;4.99;100.00;100643.06;7391627;19;20462;-62
2023/01/14 06:24:02;;;;;;;11.40;3.80;;;;;;;5.00;100.00;100634.63;7393720;19;20435;-62
2023/01/14 06:26:34;;;;;;;25.90;4.43;;;;;;;4.99;100.00;100643.06;7392016;19;20446;-64
2023/01/14 06:29:06;;;;;;;14.70;4.63;;;;;;;4.95;100.00;100653.91;7394687;19;20434;-61
2023/01/14 06:31:36;;;;;;;10.97;3.30;;;;;;;5.00;100.00;100647.41;7391311;19;20435;-63
2023/01/14 06:34:08;;;;;;;21.03;4.90;;;;;;;5.00;100.00;100646.50;7393213;19;20439;-62
2023/01/14 06:36:38;;;;;;;6.30;2.50;;;;;;;5.06;100.00;100643.44;7391259;19;20446;-61
2023/01/14 06:39:08;;;;;;;9.87;2.80;;;;;;;5.07;100.00;100637.56;7394633;19;21268;-63
2023/01/14 06:41:37;;;;;;;17.63;4.63;;;;;;;5.04;100.00;100639.91;7391039;19;20435;-63
2023/01/14 06:44:07;;;;;;;19.50;3.60;;;;;;;5.05;100.00;100634.00;7391927;19;20451;-63
2023/01/14 06:46:36;;;;;;;17.53;5.10;;;;;;;5.04;100.00;100632.25;7390874;19;20443;-62
2023/01/14 06:49:09;;;;;;;13.93;3.50;;;;;;;5.08;100.00;100631.66;7393947;19;20821;-62
2023/01/14 06:51:40;;;;;;;15.03;4.93;;;;;;;5.11;100.00;100640.41;7390033;19;20444;-61
2023/01/14 06:54:12;;;;;;;14.90;3.90;;;;;;;5.04;100.00;100647.59;7392502;19;20444;-61
2023/01/14 06:56:42;;;;;;;18.43;4.40;;;;;;;5.09;100.00;100643.66;7389263;19;20431;-63
2023/01/14 06:59:12;;;;;;;18.00;3.70;;;;;;;5.05;100.00;100654.47;7394441;19;20407;-62
2023/01/14 07:01:42;;;;;;;9.60;1.90;;;;;;;5.09;100.00;100656.44;7391406;19;20458;-61
2023/01/14 07:04:15;;;;;;;10.77;2.60;;;;;;;5.04;100.00;100662.94;7391163;19;20488;-62
2023/01/14 07:06:44;;;;;;;13.97;2.73;;;;;;;5.08;100.00;100654.66;7389736;19;20471;-62
2023/01/14 07:09:14;;;;;;;11.23;2.47;;;;;;;5.11;100.00;100659.97;7393126;19;20416;-64
2023/01/14 07:11:44;;;;;;;16.57;2.60;;;;;;;5.11;100.00;100655.75;7389340;19;20811;-63
2023/01/14 07:14:13;;;;;;;6.40;1.93;;;;;;;5.08;100.00;100660.66;7391733;19;20957;-62
2023/01/14 07:16:43;;;;;;;16.13;2.80;;;;;;;5.05;100.00;100659.56;7389570;19;20447;-63
2023/01/14 07:19:15;;;;;;;12.23;2.67;;;;;;;5.07;100.00;100653.78;7392887;19;20510;-62
2023/01/14 07:21:44;;;;;;;17.63;3.17;;;;;;;5.08;100.00;100665.78;7388473;19;20440;-61
2023/01/14 07:24:14;;;;;;;10.70;2.80;;;;;;;4.99;100.00;100650.72;7391254;19;20450;-64
2023/01/14 07:26:43;;;;;;;11.13;1.70;;;;;;;4.99;100.00;100660.09;7388954;19;20453;-62
2023/01/14 07:29:14;;;;;;;10.63;1.80;;;;;;;4.98;100.00;100654.09;7399129;19;20422;-62
2023/01/14 07:31:44;;;;;;;8.80;1.60;;;;;;;4.94;100.00;100657.25;7396315;19;20439;-63
2023/01/14 07:34:16;;;;;;;13.37;3.40;;;;;;;4.89;100.00;100655.19;7398910;19;20514;-63
2023/01/14 07:36:46;;;;;;;20.40;2.87;;;;;;;4.83;100.00;100646.31;7396434;19;20461;-63
2023/01/14 07:39:15;;;;;;;12.23;3.20;;;;;;;4.79;100.00;100646.03;7400073;19;21299;-62
2023/01/14 07:41:45;;;;;;;14.13;3.20;;;;;;;4.79;100.00;100640.94;7395627;19;20439;-63
2023/01/14 07:44:14;;;;;;;14.80;3.07;;;;;;;4.72;100.00;100642.22;7397767;19;20461;-62
2023/01/14 07:46:44;;;;;;;15.07;3.40;;;;;;;4.76;100.00;100633.94;7396021;19;20772;-63
2023/01/14 07:49:16;;;;;;;13.10;2.70;;;;;;;4.72;100.00;100634.56;7399791;19;20403;-62
2023/01/14 07:51:45;;;;;;;12.53;3.20;;;;;;;4.66;100.00;100637.59;7395764;19;20442;-63
2023/01/14 07:54:15;;;;;;;18.03;3.10;;;;;;;4.60;100.00;100634.66;7398216;19;20443;-63
2023/01/14 07:56:44;;;;;;;15.60;3.70;;;;;;;4.60;100.00;100629.53;7394944;19;20438;-62
2023/01/14 07:59:14;;;;;;;14.03;3.00;;;;;;;4.53;100.00;100635.03;7398993;19;20427;-62
2023/01/14 08:01:44;;;;;;;13.80;4.00;;;;;;;4.48;100.00;100636.41;7395806;19;20439;-62
2023/01/14 08:04:17;;;;;;;13.33;3.77;;;;;;;4.50;100.00;100637.41;7397019;19;20443;-63
2023/01/14 08:06:46;;;;;;;11.43;3.30;;;;;;;4.49;100.00;100626.31;7395411;19;20503;-63
2023/01/14 08:09:17;;;;;;;10.03;2.97;;;;;;;4.44;100.00;100623.47;7399057;19;20411;-64
2023/01/14 08:11:46;;;;;;;20.07;3.77;;;;;;;4.46;100.00;100615.88;7393425;19;20435;-63
2023/01/14 08:14:16;;;;;;;10.27;3.77;;;;;;;4.56;100.00;100607.16;7397141;19;20555;-64
2023/01/14 08:16:45;;;;;;;39.77;5.97;;;;;;;4.57;100.00;100608.91;7394954;19;20439;-63
2023/01/14 08:19:18;;;;;;;23.63;4.07;;;;;;;4.46;100.00;100606.53;7398843;19;20415;-62
2023/01/14 08:21:47;;;;;;;26.37;6.83;;;;;;;4.46;100.00;100598.88;7394814;19;20432;-62
2023/01/14 08:24:17;;;;;;;22.97;5.20;;;;;;;4.43;100.00;100591.03;7396590;19;20462;-62
2023/01/14 08:26:46;;;;;;;17.83;4.00;;;;;;;4.45;100.00;100602.22;7393730;19;20466;-63
2023/01/14 08:29:17;;;;;;;14.77;3.33;;;;;;;4.44;100.00;100586.78;7398510;19;20982;-64
2023/01/14 08:31:46;;;;;;;26.10;5.67;;;;;;;4.39;100.00;100583.94;7393981;19;20463;-62
2023/01/14 08:34:18;;;;;;;19.47;4.23;;;;;;;4.44;100.00;100591.91;7395762;19;20407;-62
2023/01/14 08:36:48;;;;;;;23.43;4.43;;;;;;;4.45;100.00;100574.13;7395032;19;20432;-62
2023/01/14 08:39:18;;;;;;;12.70;4.77;;;;;;;4.41;100.00;100572.16;7397125;19;20403;-63
2023/01/14 08:41:47;;;;;;;14.07;3.40;;;;;;;4.42;100.00;100563.69;7394085;19;20955;-63
2023/01/14 08:44:20;;;;;;;21.87;4.20;;;;;;;4.40;100.00;100565.28;7395422;19;20459;-61
2023/01/14 08:46:49;;;;;;;15.63;3.03;;;;;;;4.41;100.00;100566.16;7393151;19;20438;-62
2023/01/14 08:49:21;;;;;;;16.60;4.80;;;;;;;4.43;100.00;100564.59;7397456;19;20407;-61
2023/01/14 08:51:51;;;;;;;18.03;4.20;;;;;;;4.42;100.00;100548.34;7396839;19;20919;-62
2023/01/14 08:54:21;;;;;;;16.97;4.87;;;;;;;4.48;100.00;100536.75;7389691;19;20443;-63
2023/01/14 08:56:50;;;;;;;17.77;4.50;;;;;;;4.51;100.00;100540.41;7397202;19;20403;-61
2023/01/14 08:59:19;;;;;;;25.53;5.03;;;;;;;4.57;100.00;100532.25;7391284;19;20438;-61
2023/01/14 09:01:49;;;;;;;17.10;4.33;;;;;;;4.58;100.00;100528.91;7396063;19;20400;-61
2023/01/14 09:04:26;;;;;;;30.00;5.90;;;;;;;4.62;100.00;100525.75;7390095;19;20535;-61
2023/01/14 09:17:44;;;;;;;26.30;5.40;;;;;;;4.73;100.00;100523.84;7394039;19;20808;-61
2023/01/14 09:20:20;;;;;;;22.50;7.13;;;;;;;4.73;100.00;100511.94;7395896;19;20993;-63
2023/01/14 09:22:49;;;;;;;6.50;2.40;;;;;;;4.70;100.00;100526.22;7390307;19;20399;-61
2023/01/14 09:25:19;;;;;;;27.17;5.47;;;;;;;4.74;100.00;100517.94;7393956;19;20531;-61
2023/01/14 09:27:55;;;;;;;15.80;4.20;;;;;;;4.76;100.00;100512.94;7393004;19;20406;-61
2023/01/14 09:30:26;;;;;;;21.87;5.13;;;;;;;4.77;100.00;100514.69;7396212;19;20962;-63
2023/01/14 09:32:55;;;;;;;15.30;4.10;;;;;;;4.77;100.00;100517.25;7392101;19;20411;-61
2023/01/14 09:35:27;;;;;;;19.03;5.20;;;;;;;4.78;100.00;100516.47;7396186;19;20408;-62
2023/01/14 09:37:57;;;;;;;18.50;5.00;;;;;;;4.81;100.00;100512.41;7393121;19;20405;-63
2023/01/14 09:40:26;;;;;;;29.57;5.73;;;;;;;4.84;100.00;100521.94;7395287;19;20407;-63
2023/01/14 09:42:57;;;;;;;17.00;4.60;;;;;;;4.91;100.00;100508.75;7392629;19;20395;-62
2023/01/14 09:45:28;;;;;;;27.00;5.47;;;;;;;4.90;100.00;100516.31;7395141;19;20419;-63
2023/01/14 09:48:07;;;;;;;22.97;5.60;;;;;;;4.87;100.00;100517.00;7383315;19;20970;-62
2023/01/14 09:50:48;;;;;;;33.47;5.43;;;;;;;4.85;100.00;100522.06;7396772;19;20833;-62
2023/01/14 09:53:25;;;;;;;21.63;5.43;;;;;;;4.89;100.00;100515.44;7389524;19;20458;-62
2023/01/14 09:55:58;;;;;;;14.40;4.70;;;;;;;4.89;100.00;100502.66;7395412;19;20419;-61
2023/01/14 09:58:31;;;;;;;26.53;6.10;;;;;;;4.90;100.00;100512.09;7391324;19;20415;-61
2023/01/14 10:01:11;;;;;;;17.73;6.40;;;;;;;4.92;100.00;100501.97;7384184;19;20427;-63
2023/01/14 10:03:46;;;;;;;16.60;5.10;;;;;;;4.94;100.00;100496.16;7387251;19;20503;-62
2023/01/14 10:06:19;;;;;;;22.33;5.40;;;;;;;4.93;100.00;100479.03;7387932;19;21152;-62
2023/01/14 10:08:52;;;;;;;24.83;4.93;;;;;;;4.91;100.00;100482.31;7388252;19;20797;-62
2023/01/14 10:11:22;;;;;;;22.40;5.20;;;;;;;4.97;100.00;100493.78;7389876;19;20403;-64
2023/01/14 10:13:54;;;;;;;26.67;5.03;;;;;;;4.95;100.00;100495.38;7389989;19;20439;-61
2023/01/14 10:16:28;;;;;;;26.63;6.53;;;;;;;5.02;100.00;100477.84;7390195;19;20776;-62
2023/01/14 10:19:02;;;;;;;34.07;6.37;;;;;;;5.07;100.00;100477.31;7389775;19;20407;-62
2023/01/14 10:21:41;;;;;;;23.80;6.17;;;;;;;5.12;100.00;100467.34;7388939;19;20411;-61
2023/01/14 10:24:13;;;;;;;16.70;5.30;;;;;;;5.08;100.00;100466.28;7389015;19;20433;-63
2023/01/14 10:26:43;;;;;;;12.90;3.20;;;;;;;5.03;100.00;100448.91;7388292;19;20419;-63
2023/01/14 10:29:19;;;;;;;25.50;6.10;;;;;;;5.12;100.00;100431.53;7389591;19;21038;-61
2023/01/14 10:31:53;;;;;;;28.80;6.30;;;;;;;5.12;100.00;100426.41;7388991;19;20451;-63
2023/01/14 10:34:27;;;;;;;22.53;5.93;;;;;;;5.16;100.00;100412.13;7389351;19;20466;-62
2023/01/14 10:36:59;;;;;;;24.43;5.50;;;;;;;5.15;100.00;100416.38;7390492;19;20411;-63
2023/01/14 10:39:29;;;;;;;18.37;6.70;;;;;;;5.20;100.00;100399.63;7390338;19;20422;-63
2023/01/14 10:42:00;;;;;;;30.07;7.47;;;;;;;5.47;100.00;100388.31;7390136;19;20412;-61
2023/01/14 10:44:32;;;;;;;25.63;5.93;;;;;;;5.30;100.00;100392.47;7389157;19;20451;-64
2023/01/14 10:47:04;;;;;;;26.10;7.90;;;;;;;5.32;100.00;100378.97;7386911;19;21350;-63
2023/01/14 10:49:37;;;;;;;30.63;6.23;;;;;;;5.33;100.00;100362.84;7389787;19;20404;-63
2023/01/14 10:52:24;;;;;;;34.43;11.00;;;;;;;5.60;100.00;100361.75;7392939;19;20411;-62
2023/01/14 10:54:59;;;;;;;21.17;5.90;;;;;;;5.39;100.00;100354.63;7386883;19;20539;-62
2023/01/14 10:57:30;;;;;;;20.60;5.40;;;;;;;5.40;100.00;100331.66;7393903;19;20395;-62
2023/01/14 11:00:01;;;;;;;15.53;4.60;;;;;;;5.44;100.00;100331.84;7387331;19;20448;-63
2023/01/14 11:02:36;;;;;;;26.80;4.47;;;;;;;5.42;100.00;100318.09;7394002;19;20397;-63
2023/01/14 11:05:07;;;;;;;21.23;4.80;;;;;;;5.43;100.00;100309.63;7389037;19;20474;-63
2023/01/14 11:07:42;;;;;;;25.00;5.00;;;;;;;5.43;100.00;100305.38;7401715;19;20422;-63
2023/01/14 11:10:19;;;;;;;17.57;3.80;;;;;;;5.38;100.00;100306.78;7395877;19;20467;-63
2023/01/14 11:12:48;;;;;;;21.33;3.50;;;;;;;5.40;100.00;100302.66;7399522;19;20419;-62
2023/01/14 11:15:35;;;;;;;22.30;4.70;;;;;;;5.44;100.00;100293.47;7394640;19;20455;-63
2023/01/14 11:18:30;;;;;;;17.10;4.50;;;;;;;5.44;100.00;100284.09;7400511;19;20424;-63
2023/01/14 11:21:09;;;;;;;19.43;5.17;;;;;;;5.43;100.00;100272.13;7398500;19;20432;-63
2023/01/14 11:23:43;;;;;;;22.83;4.60;;;;;;;5.46;100.00;100254.38;7394963;19;20463;-62
2023/01/14 11:26:14;;;;;;;31.77;4.30;;;;;;;5.46;100.00;100249.25;7392740;19;20410;-61
2023/01/14 11:28:46;;;;;;;20.83;5.40;;;;;;;5.49;100.00;100246.84;7395802;19;20974;-61
2023/01/14 11:31:17;;;;;;;17.87;3.97;;;;;;;5.50;100.00;100234.97;7399032;19;20415;-63
2023/01/14 11:33:51;;;;;;;24.77;4.97;;;;;;;5.51;100.00;100231.59;7394952;19;20983;-61
2023/01/14 11:36:24;;;;;;;21.40;5.13;;;;;;;5.50;100.00;100228.13;7398243;19;21003;-63
2023/01/14 11:38:58;;;;;;;23.53;5.03;;;;;;;5.57;100.00;100210.56;7396746;19;20498;-62
2023/01/14 11:41:29;;;;;;;24.03;3.87;;;;;;;5.51;100.00;100204.34;7399102;19;20415;-63
2023/01/14 11:44:01;;;;;;;9.73;2.80;;;;;;;5.47;100.00;100201.50;7392441;19;20415;-60
2023/01/14 11:46:33;;;;;;;22.53;3.83;;;;;;;5.45;100.00;100191.22;7397101;19;20440;-63
2023/01/14 11:49:05;;;;;;;17.60;3.30;;;;;;;5.47;100.00;100184.50;7396554;19;20435;-63
2023/01/14 11:51:38;;;;;;;18.27;3.53;;;;;;;5.48;100.00;100175.16;7398087;19;20408;-63
2023/01/14 11:54:17;;;;;;;24.63;4.63;;;;;;;5.49;100.00;100172.66;7394650;19;20503;-63
2023/01/14 11:56:47;;;;;;;16.93;3.90;;;;;;;5.45;100.00;100164.75;7399278;19;20411;-63
2023/01/14 11:59:29;;;;;;;8.53;2.70;;;;;;;5.39;100.00;100160.19;7394660;19;20438;-63
2023/01/14 12:02:02;;;;;;;13.47;2.90;;;;;;;5.37;100.00;100141.28;7395799;19;20416;-62
2023/01/14 12:04:37;;;;;;;26.57;2.97;;;;;;;5.32;100.00;100124.84;7391857;19;20450;-64
2023/01/14 12:07:08;;;;;;;16.60;3.20;;;;;;;5.32;100.00;100127.41;7396264;19;20400;-61
2023/01/14 12:09:47;;;;;;;17.87;3.53;;;;;;;5.31;100.00;100116.28;7394208;19;20432;-62
2023/01/14 12:12:19;;;;;;;16.13;2.87;;;;;;;5.19;100.00;100106.28;7395732;19;20404;-63